Terminal Aerodrome Forecast
Issued by NWS Albany, NY

Home | Current Version | Previous Version | Text Only | Print | Product List | Glossary On
Versions: 1 2 3 4 5 6 7 8 9 10 11 12 13 14 15 16 17 18
000
FTUS41 KALY 231100
TAFGFL
TAF
KGFL 231136Z 2312/2412 17005KT P6SM FEW060
     FM231300 19006KT 6SM HZ SCT050 SCT250
     FM231600 21008KT P6SM SCT050 SCT250
     FM231800 22008KT P6SM BKN050 BKN100 PROB30 2321/2401 3SM TSRA
      BR BKN015CB BKN035
     FM240100 25007KT P6SM BKN050 BKN100=

USA.gov is the U.S. government's official web portal to all federal, state and local government web resources and services.